Time;durP1;ratioP1;P1;durP2;ratioP2;P2;SDS_P1;SDS_P2;PMS_P1;PMS_P2;Temp;Humidity;BMP_temperature;BMP_pressure;BME280_temperature;BME280_humidity;BME280_pressure;Samples;Min_cycle;Max_cycle;Signal;HPM_P1;HPM_P2
2023/03/10 00:02:20;;;;;;;38.03;22.63;;;;;;;4.53;100.00;98609.81;5066811;28;20391;-68
2023/03/10 00:04:50;;;;;;;39.53;22.80;;;;;;;4.53;100.00;98608.06;5071825;28;20033;-67
2023/03/10 00:07:15;;;;;;;44.40;23.25;;;;;;;4.52;100.00;98610.69;5072036;28;20482;-67
2023/03/10 00:09:41;;;;;;;39.67;23.48;;;;;;;4.52;100.00;98622.00;5075269;28;20040;-68
2023/03/10 00:12:06;;;;;;;38.40;22.80;;;;;;;4.53;100.00;98615.06;5075393;28;20040;-67
2023/03/10 00:14:32;;;;;;;41.55;23.55;;;;;;;4.53;100.00;98621.13;5075602;28;20057;-67
2023/03/10 00:16:57;;;;;;;41.88;23.60;;;;;;;4.51;100.00;98612.44;5075250;28;20508;-68
2023/03/10 00:19:22;;;;;;;41.53;23.77;;;;;;;4.54;100.00;98617.66;5075351;28;20432;-68
2023/03/10 00:21:48;;;;;;;42.75;23.98;;;;;;;4.56;100.00;98614.13;5075445;28;20035;-67
2023/03/10 00:24:13;;;;;;;41.92;23.83;;;;;;;4.58;100.00;98609.78;5075078;28;20547;-67
2023/03/10 00:26:38;;;;;;;42.83;24.13;;;;;;;4.57;100.00;98606.28;5075096;28;20035;-68
2023/03/10 00:29:04;;;;;;;45.90;24.85;;;;;;;4.53;100.00;98599.34;5074079;28;20028;-67
2023/03/10 00:31:30;;;;;;;42.35;24.13;;;;;;;4.49;100.00;98595.88;5074988;28;20110;-68
2023/03/10 00:33:56;;;;;;;44.97;24.67;;;;;;;4.51;100.00;98598.47;5075208;28;20051;-68
2023/03/10 00:36:24;;;;;;;42.80;24.13;;;;;;;4.52;100.00;98600.22;5074951;28;20032;-67
2023/03/10 00:38:50;;;;;;;44.22;24.80;;;;;;;4.49;100.00;98595.88;5071067;28;20024;-68
2023/03/10 00:41:18;;;;;;;44.20;24.27;;;;;;;4.51;100.00;98603.72;5074963;28;20029;-67
2023/03/10 00:43:44;;;;;;;46.40;24.67;;;;;;;4.51;100.00;98604.59;5075037;28;20040;-67
2023/03/10 00:46:10;;;;;;;43.45;24.40;;;;;;;4.50;100.00;98605.47;5074761;28;20032;-68
2023/03/10 00:48:36;;;;;;;45.75;24.40;;;;;;;4.54;100.00;98608.91;5074905;28;20028;-67
2023/03/10 00:51:03;;;;;;;43.58;24.95;;;;;;;4.58;100.00;98608.03;5074552;28;20471;-68
2023/03/10 00:53:29;;;;;;;45.22;24.48;;;;;;;4.61;100.00;98608.00;5074382;28;20041;-67
2023/03/10 00:56:04;;;;;;;46.03;24.67;;;;;;;4.62;100.00;98606.28;5074719;28;20469;-67
2023/03/10 00:58:31;;;;;;;43.63;24.48;;;;;;;4.69;100.00;98615.81;5075013;28;20352;-67
2023/03/10 01:00:57;;;;;;;42.28;24.70;;;;;;;4.75;100.00;98607.91;5074417;28;20475;-68
2023/03/10 01:03:24;;;;;;;42.85;23.73;;;;;;;4.91;100.00;98610.38;5074356;28;20024;-68
2023/03/10 01:05:50;;;;;;;46.50;25.48;;;;;;;5.03;100.00;98612.91;5074577;28;20025;-68
2023/03/10 01:08:16;;;;;;;43.15;24.90;;;;;;;5.13;100.00;98611.94;5074293;28;20032;-68
2023/03/10 01:10:42;;;;;;;44.90;25.33;;;;;;;5.21;100.00;98612.75;5074204;28;20036;-66
2023/03/10 01:13:10;;;;;;;39.35;21.75;;;;;;;5.41;100.00;98611.69;5074433;28;20356;-67
2023/03/10 01:15:35;;;;;;;40.88;22.45;;;;;;;5.62;100.00;98607.09;5074425;28;20064;-66
2023/03/10 01:18:02;;;;;;;36.58;19.95;;;;;;;5.87;100.00;98603.31;5074105;28;20052;-69
2023/03/10 01:20:29;;;;;;;39.72;21.27;;;;;;;5.96;100.00;98601.47;5073431;28;20028;-71
2023/03/10 01:22:54;;;;;;;35.53;19.20;;;;;;;6.14;100.00;98590.75;5073972;28;20086;-71
2023/03/10 01:25:20;;;;;;;32.67;16.80;;;;;;;6.31;100.00;98590.50;5074027;28;20472;-68
2023/03/10 01:27:45;;;;;;;33.67;17.27;;;;;;;6.47;100.00;98593.78;5074059;28;20024;-70
2023/03/10 01:30:11;;;;;;;31.98;16.17;;;;;;;6.59;100.00;98587.47;5073687;28;20036;-67
2023/03/10 01:32:37;;;;;;;32.13;16.17;;;;;;;6.71;100.00;98584.66;5073998;28;20059;-72
2023/03/10 01:35:04;;;;;;;31.65;16.20;;;;;;;6.79;100.00;98582.78;5073767;28;20175;-68
2023/03/10 01:37:29;;;;;;;30.52;15.80;;;;;;;6.91;100.00;98584.31;5073772;28;20028;-71
2023/03/10 01:39:54;;;;;;;31.88;15.95;;;;;;;7.00;100.00;98585.06;5074143;28;20383;-68
2023/03/10 01:42:20;;;;;;;31.50;15.90;;;;;;;7.01;100.00;98578.94;5073572;28;20025;-73
2023/03/10 01:45:04;;;;;;;32.42;16.50;;;;;;;7.07;100.00;98577.06;5073561;28;20037;-74
2023/03/10 01:47:29;;;;;;;30.48;15.45;;;;;;;7.17;100.00;98584.78;5070890;28;20035;-74
2023/03/10 01:49:54;;;;;;;31.60;16.00;;;;;;;7.20;100.00;98575.06;5073751;28;20025;-73
2023/03/10 01:52:23;;;;;;;33.50;15.77;;;;;;;7.19;100.00;98561.97;5073561;28;20024;-67
2023/03/10 01:54:54;;;;;;;30.40;15.32;;;;;;;7.16;100.00;98562.88;5069511;28;20133;-69
2023/03/10 01:57:22;;;;;;;31.30;15.57;;;;;;;7.15;100.00;98569.06;5069588;28;20387;-69
2023/03/10 01:59:49;;;;;;;31.55;15.77;;;;;;;7.22;100.00;98562.75;5073303;28;20021;-69
2023/03/10 02:02:16;;;;;;;31.58;15.27;;;;;;;7.22;100.00;98562.75;5073221;28;20032;-68
2023/03/10 02:04:50;;;;;;;32.58;15.25;;;;;;;7.21;100.00;98566.31;5072176;28;20025;-69
2023/03/10 02:07:20;;;;;;;31.00;15.13;;;;;;;7.24;100.00;98566.25;5073591;28;20363;-69
2023/03/10 02:09:47;;;;;;;30.95;15.00;;;;;;;7.29;100.00;98571.41;5072949;28;20070;-68
2023/03/10 02:12:14;;;;;;;30.88;14.82;;;;;;;7.38;100.00;98570.38;5073084;28;20043;-68
2023/03/10 02:14:42;;;;;;;32.13;15.40;;;;;;;7.35;100.00;98565.19;5073338;28;20479;-69
2023/03/10 02:17:12;;;;;;;30.60;14.48;;;;;;;7.44;100.00;98567.63;5072976;28;20471;-68
2023/03/10 02:19:49;;;;;;;33.03;15.07;;;;;;;7.44;100.00;98557.09;5072902;28;20068;-68
2023/03/10 02:22:16;;;;;;;30.23;14.68;;;;;;;7.44;100.00;98551.84;5073179;28;20481;-67
2023/03/10 02:24:51;;;;;;;29.50;14.15;;;;;;;7.39;100.00;98553.72;5073080;28;20085;-68
2023/03/10 02:27:30;;;;;;;29.85;13.82;;;;;;;7.31;100.00;98543.34;5072898;28;20386;-68
2023/03/10 02:30:04;;;;;;;28.42;13.80;;;;;;;7.33;100.00;98539.78;5069590;28;20420;-67
2023/03/10 02:32:33;;;;;;;28.33;13.73;;;;;;;7.31;100.00;98532.81;5072729;28;20020;-68
2023/03/10 02:34:58;;;;;;;29.65;13.68;;;;;;;7.32;100.00;98521.41;5072794;28;20029;-68
2023/03/10 02:37:30;;;;;;;29.73;13.43;;;;;;;7.31;100.00;98533.72;5072915;28;20036;-68
2023/03/10 02:39:56;;;;;;;28.40;13.35;;;;;;;7.33;100.00;98531.03;5072734;28;20039;-68
2023/03/10 02:42:24;;;;;;;28.50;12.80;;;;;;;7.36;100.00;98523.09;5071416;28;20028;-68
2023/03/10 02:44:50;;;;;;;28.17;13.25;;;;;;;7.26;100.00;98519.78;5068764;28;20025;-68
2023/03/10 02:47:16;;;;;;;31.67;13.77;;;;;;;7.21;100.00;98523.38;5072635;28;20115;-68
2023/03/10 02:49:42;;;;;;;28.02;12.60;;;;;;;7.27;100.00;98518.03;5072476;28;20165;-68
2023/03/10 02:52:19;;;;;;;28.52;13.13;;;;;;;7.30;100.00;98518.81;5072749;28;20036;-68
2023/03/10 02:54:45;;;;;;;29.70;13.45;;;;;;;7.29;100.00;98518.84;5075375;28;20056;-68
2023/03/10 02:57:10;;;;;;;28.73;12.73;;;;;;;7.29;100.00;98510.97;5074929;28;20033;-68
2023/03/10 02:59:35;;;;;;;27.77;12.30;;;;;;;7.19;100.00;98498.91;5075804;28;20025;-68
2023/03/10 03:02:01;;;;;;;28.63;13.18;;;;;;;7.14;100.00;98504.25;5073492;28;20021;-67
2023/03/10 03:04:26;;;;;;;28.50;12.73;;;;;;;7.06;100.00;98500.91;5073346;28;20027;-68
2023/03/10 03:06:52;;;;;;;28.88;12.63;;;;;;;7.02;100.00;98499.22;5072830;28;20059;-67
2023/03/10 03:09:17;;;;;;;29.75;12.93;;;;;;;6.97;100.00;98492.31;5072271;28;20479;-68
2023/03/10 03:11:42;;;;;;;29.65;13.20;;;;;;;6.96;100.00;98497.56;5072496;28;20025;-68
2023/03/10 03:14:08;;;;;;;31.02;13.65;;;;;;;7.05;100.00;98491.28;5074121;28;20111;-68
2023/03/10 03:16:33;;;;;;;29.98;12.85;;;;;;;7.01;100.00;98492.25;5073920;28;20534;-68
2023/03/10 03:18:59;;;;;;;31.35;13.75;;;;;;;7.07;100.00;98492.97;5074713;28;20049;-69
2023/03/10 03:21:24;;;;;;;31.63;13.65;;;;;;;7.06;100.00;98493.00;5074212;28;20356;-68
2023/03/10 03:23:49;;;;;;;31.45;12.80;;;;;;;7.11;100.00;98485.94;5073379;28;20384;-67
2023/03/10 03:26:19;;;;;;;29.02;11.73;;;;;;;7.15;100.00;98487.59;5073003;28;20604;-68
2023/03/10 03:28:44;;;;;;;29.92;12.38;;;;;;;7.11;100.00;98478.03;5072348;28;20033;-68
2023/03/10 03:31:18;;;;;;;27.27;11.85;;;;;;;7.18;100.00;98482.28;5072298;28;20036;-67
2023/03/10 03:33:44;;;;;;;28.25;11.70;;;;;;;7.18;100.00;98482.28;5072117;28;20032;-68
2023/03/10 03:36:10;;;;;;;28.25;11.48;;;;;;;7.22;100.00;98483.94;5072321;28;20124;-68
2023/03/10 03:38:36;;;;;;;26.40;10.40;;;;;;;7.25;100.00;98486.53;5072190;28;20515;-67
2023/03/10 03:41:01;;;;;;;28.85;10.38;;;;;;;7.28;100.00;98490.84;5071115;28;20029;-68
2023/03/10 03:43:28;;;;;;;26.63;10.48;;;;;;;7.30;100.00;98482.03;5073895;28;20364;-68
2023/03/10 03:45:54;;;;;;;26.90;10.00;;;;;;;7.34;100.00;98485.47;5075838;28;20140;-68
2023/03/10 03:48:19;;;;;;;27.25;10.02;;;;;;;7.32;100.00;98484.63;5076434;28;20515;-68
2023/03/10 03:50:44;;;;;;;26.35;9.45;;;;;;;7.32;100.00;98480.25;5075912;28;20071;-68
2023/03/10 03:53:10;;;;;;;26.40;9.45;;;;;;;7.31;100.00;98481.13;5075538;28;20049;-67
2023/03/10 03:55:35;;;;;;;27.92;9.00;;;;;;;7.35;100.00;98483.69;5074761;28;20079;-68
2023/03/10 03:58:00;;;;;;;27.08;9.35;;;;;;;7.33;100.00;98473.22;5075646;28;20048;-67
2023/03/10 04:00:26;;;;;;;26.65;9.25;;;;;;;7.35;100.00;98468.78;5075623;28;20025;-67
2023/03/10 04:02:51;;;;;;;28.15;9.35;;;;;;;7.32;100.00;98475.00;5075801;28;20082;-68
2023/03/10 04:05:17;;;;;;;26.17;8.95;;;;;;;7.34;100.00;98464.44;5075418;28;20036;-67
2023/03/10 04:07:43;;;;;;;25.45;9.13;;;;;;;7.34;100.00;98464.44;5075467;28;20060;-67
2023/03/10 04:10:12;;;;;;;25.27;8.63;;;;;;;7.34;100.00;98467.09;5075589;28;20074;-67
2023/03/10 04:12:37;;;;;;;24.63;8.57;;;;;;;7.34;100.00;98459.19;5075408;28;20033;-67
2023/03/10 04:15:04;;;;;;;26.17;9.00;;;;;;;7.30;100.00;98457.53;5075316;28;20471;-68
2023/03/10 04:17:29;;;;;;;27.08;8.90;;;;;;;7.26;100.00;98458.47;5075508;28;20059;-68
2023/03/10 04:19:55;;;;;;;24.27;8.02;;;;;;;7.29;100.00;98469.78;5075263;28;20430;-68
2023/03/10 04:22:20;;;;;;;26.25;8.05;;;;;;;7.30;100.00;98461.00;5075332;28;20033;-67
2023/03/10 04:24:45;;;;;;;23.25;7.85;;;;;;;7.33;100.00;98458.31;5075377;28;20024;-67
2023/03/10 04:27:11;;;;;;;26.13;7.90;;;;;;;7.35;100.00;98454.78;5075170;28;20025;-67
2023/03/10 04:29:36;;;;;;;26.80;7.60;;;;;;;7.36;100.00;98460.00;5075099;28;20040;-67
2023/03/10 04:32:03;;;;;;;26.30;7.80;;;;;;;7.33;100.00;98462.72;5075769;28;20067;-67
2023/03/10 04:34:29;;;;;;;21.88;7.38;;;;;;;7.29;100.00;98464.50;5074998;28;20060;-67
2023/03/10 04:36:54;;;;;;;24.05;7.55;;;;;;;7.23;100.00;98463.78;5074995;28;20059;-68
2023/03/10 04:39:19;;;;;;;24.23;7.25;;;;;;;7.17;100.00;98459.53;5075038;28;20563;-67
2023/03/10 04:41:45;;;;;;;23.73;7.30;;;;;;;7.12;100.00;98454.38;5074772;28;20032;-68
2023/03/10 04:44:10;;;;;;;23.05;6.75;;;;;;;7.11;100.00;98457.88;5075073;28;20073;-67
2023/03/10 04:46:36;;;;;;;24.27;6.60;;;;;;;7.05;100.00;98450.13;5074931;28;20066;-68
2023/03/10 04:49:01;;;;;;;23.92;6.70;;;;;;;7.01;100.00;98437.94;5074714;28;20029;-67
2023/03/10 04:51:27;;;;;;;25.10;6.82;;;;;;;6.98;100.00;98444.09;5074758;28;20390;-68
2023/03/10 04:53:52;;;;;;;24.80;6.63;;;;;;;7.06;100.00;98446.59;5073923;28;20056;-67
2023/03/10 04:56:18;;;;;;;26.60;6.85;;;;;;;7.04;100.00;98442.28;5073794;28;20025;-67
2023/03/10 04:58:43;;;;;;;24.75;7.05;;;;;;;7.01;100.00;98443.19;5074722;28;20103;-67
2023/03/10 05:01:10;;;;;;;25.10;7.20;;;;;;;7.00;100.00;98440.59;5073175;28;20158;-67
2023/03/10 05:03:36;;;;;;;26.42;6.97;;;;;;;7.01;100.00;98435.31;5074438;28;20471;-67
2023/03/10 05:06:02;;;;;;;25.00;6.78;;;;;;;7.02;100.00;98447.56;5074581;28;20024;-70
2023/03/10 05:08:27;;;;;;;23.98;6.78;;;;;;;7.07;100.00;98432.56;5074393;28;20107;-68
2023/03/10 05:10:53;;;;;;;25.27;7.18;;;;;;;7.05;100.00;98442.25;5074269;28;20119;-67
2023/03/10 05:13:18;;;;;;;24.85;6.85;;;;;;;7.09;100.00;98436.03;5074675;28;20033;-69
2023/03/10 05:15:43;;;;;;;27.40;7.05;;;;;;;7.07;100.00;98435.19;5074183;28;20030;-68
2023/03/10 05:18:10;;;;;;;23.80;6.47;;;;;;;7.10;100.00;98434.25;5074037;28;20031;-70
2023/03/10 05:20:37;;;;;;;24.95;7.10;;;;;;;7.06;100.00;98441.34;5074301;28;20016;-70
2023/03/10 05:23:02;;;;;;;26.42;7.18;;;;;;;7.06;100.00;98435.22;5074327;28;20039;-68
2023/03/10 05:25:28;;;;;;;26.95;6.90;;;;;;;7.02;100.00;98425.66;5074247;28;20436;-68
2023/03/10 05:27:54;;;;;;;29.35;7.43;;;;;;;7.04;100.00;98439.66;5074258;28;20106;-69
2023/03/10 05:30:19;;;;;;;26.15;6.82;;;;;;;7.08;100.00;98441.31;5073861;28;20040;-73
2023/03/10 05:32:44;;;;;;;28.00;7.30;;;;;;;7.09;100.00;98449.16;5073988;28;20024;-71
2023/03/10 05:35:11;;;;;;;26.17;7.32;;;;;;;7.09;100.00;98445.66;5073756;28;20437;-67
2023/03/10 05:37:38;;;;;;;24.52;6.97;;;;;;;7.07;100.00;98442.22;5073863;28;20024;-67
2023/03/10 05:40:07;;;;;;;26.83;7.63;;;;;;;7.03;100.00;98444.00;5073921;28;20421;-68
2023/03/10 05:42:32;;;;;;;27.25;7.43;;;;;;;7.07;100.00;98448.31;5073649;28;20033;-67
2023/03/10 05:44:58;;;;;;;27.45;7.25;;;;;;;7.10;100.00;98447.41;5073542;28;20613;-68
2023/03/10 05:47:23;;;;;;;26.80;7.13;;;;;;;7.06;100.00;98451.88;5074017;28;20028;-68
2023/03/10 05:49:48;;;;;;;27.10;7.53;;;;;;;7.06;100.00;98453.59;5073454;28;20125;-68
2023/03/10 05:52:14;;;;;;;27.55;7.47;;;;;;;7.06;100.00;98453.59;5073471;28;20021;-68
2023/03/10 05:54:39;;;;;;;29.95;7.82;;;;;;;7.05;100.00;98451.88;5073224;28;20094;-68
2023/03/10 05:57:05;;;;;;;28.02;7.57;;;;;;;7.04;100.00;98445.75;5073343;28;20040;-68
2023/03/10 05:59:30;;;;;;;30.60;7.95;;;;;;;7.03;100.00;98448.41;5073414;28;20033;-68
2023/03/10 06:01:55;;;;;;;28.45;8.18;;;;;;;7.04;100.00;98443.13;5073436;28;20028;-68
2023/03/10 06:04:21;;;;;;;31.17;8.45;;;;;;;7.04;100.00;98447.53;5069109;28;20035;-68
2023/03/10 06:06:46;;;;;;;28.10;9.15;;;;;;;7.02;100.00;98446.66;5072734;28;20111;-68
2023/03/10 06:09:12;;;;;;;30.05;8.43;;;;;;;7.03;100.00;98451.03;5073219;28;20491;-68
2023/03/10 06:11:37;;;;;;;31.38;8.35;;;;;;;7.04;100.00;98455.41;5073106;28;20391;-68
2023/03/10 06:14:03;;;;;;;29.10;8.63;;;;;;;7.04;100.00;98455.41;5073441;28;20036;-69
2023/03/10 06:16:28;;;;;;;30.95;8.65;;;;;;;7.02;100.00;98449.31;5073281;28;20025;-68
2023/03/10 06:18:54;;;;;;;31.02;8.88;;;;;;;7.01;100.00;98453.69;5073042;28;20028;-68
2023/03/10 06:21:20;;;;;;;29.42;8.40;;;;;;;7.02;100.00;98460.69;5073150;28;20052;-68
2023/03/10 06:23:46;;;;;;;31.65;9.05;;;;;;;7.05;100.00;98465.00;5072877;28;20459;-68
2023/03/10 06:26:13;;;;;;;29.50;8.18;;;;;;;7.05;100.00;98462.38;5072850;28;20066;-68
2023/03/10 06:28:41;;;;;;;29.33;8.73;;;;;;;7.08;100.00;98459.72;5073087;28;20063;-68
2023/03/10 06:31:11;;;;;;;30.05;8.70;;;;;;;7.09;100.00;98458.78;5072695;28;20036;-68
2023/03/10 06:33:37;;;;;;;30.90;8.70;;;;;;;7.09;100.00;98467.56;5067700;28;20021;-74
2023/03/10 06:36:03;;;;;;;29.92;8.45;;;;;;;7.11;100.00;98475.41;5063161;28;20028;-77
2023/03/10 06:38:29;;;;;;;33.28;9.55;;;;;;;7.10;100.00;98474.53;5076971;28;20028;-74
2023/03/10 06:40:54;;;;;;;29.48;8.77;;;;;;;7.11;100.00;98478.03;5073828;28;20016;-72
2023/03/10 06:43:20;;;;;;;26.73;8.95;;;;;;;7.12;100.00;98462.25;5062944;28;20418;-71
2023/03/10 06:45:46;;;;;;;28.27;8.82;;;;;;;7.12;100.00;98464.88;5065631;28;20111;-73
2023/03/10 06:48:12;;;;;;;26.60;8.60;;;;;;;7.13;100.00;98466.59;5067113;28;20028;-73
2023/03/10 06:50:42;;;;;;;29.83;9.02;;;;;;;7.11;100.00;98471.00;5069540;28;20028;-72
2023/03/10 06:53:09;;;;;;;28.85;9.07;;;;;;;7.11;100.00;98471.00;5063635;28;20036;-71
2023/03/10 06:55:34;;;;;;;30.13;9.25;;;;;;;7.11;100.00;98470.16;5071741;28;20031;-69
2023/03/10 06:57:59;;;;;;;29.45;8.75;;;;;;;7.11;100.00;98471.00;5066850;28;20037;-71
2023/03/10 07:00:25;;;;;;;32.47;9.90;;;;;;;7.12;100.00;98475.38;5070251;28;20033;-70
2023/03/10 07:02:50;;;;;;;32.22;10.25;;;;;;;7.15;100.00;98472.69;5072189;28;20024;-69
2023/03/10 07:05:16;;;;;;;30.15;9.73;;;;;;;7.21;100.00;98479.59;5063955;28;20124;-67
2023/03/10 07:07:41;;;;;;;32.67;10.48;;;;;;;7.28;100.00;98473.31;5077211;28;20024;-68
2023/03/10 07:10:07;;;;;;;31.10;9.93;;;;;;;7.31;100.00;98475.88;5068833;28;20497;-69
2023/03/10 07:12:33;;;;;;;30.77;10.60;;;;;;;7.38;100.00;98483.63;5072094;28;20035;-69
2023/03/10 07:14:58;;;;;;;32.47;10.20;;;;;;;7.43;100.00;98477.41;5066342;28;20075;-69
2023/03/10 07:17:24;;;;;;;31.55;10.60;;;;;;;7.47;100.00;98472.91;5070900;28;20028;-69
2023/03/10 07:19:49;;;;;;;32.30;10.52;;;;;;;7.51;100.00;98477.22;5080926;28;20036;-69
2023/03/10 07:22:15;;;;;;;30.58;10.05;;;;;;;7.52;100.00;98480.75;5076440;28;20037;-71
2023/03/10 07:24:40;;;;;;;31.33;9.38;;;;;;;7.54;100.00;98481.56;5072033;28;20386;-67
2023/03/10 07:27:06;;;;;;;28.92;8.75;;;;;;;7.56;100.00;98483.28;5075881;28;20025;-70
2023/03/10 07:29:31;;;;;;;30.48;9.05;;;;;;;7.64;100.00;98488.34;5076235;28;20025;-70
2023/03/10 07:31:56;;;;;;;29.55;9.13;;;;;;;7.67;100.00;98486.53;5064334;28;20111;-70
2023/03/10 07:34:22;;;;;;;27.65;9.23;;;;;;;7.77;100.00;98486.34;5067279;28;20076;-74
2023/03/10 07:36:47;;;;;;;31.27;8.80;;;;;;;7.83;100.00;98488.81;5077000;28;20028;-72
2023/03/10 07:39:13;;;;;;;27.65;8.52;;;;;;;7.97;100.00;98494.66;5076653;28;20033;-73
2023/03/10 07:41:39;;;;;;;30.85;8.00;;;;;;;8.09;100.00;98493.50;5071096;28;20024;-74
2023/03/10 07:44:04;;;;;;;28.88;8.13;;;;;;;8.11;100.00;98494.34;5068321;28;20387;-73
2023/03/10 07:46:30;;;;;;;27.95;7.75;;;;;;;8.07;100.00;98499.69;5071568;28;20029;-77
2023/03/10 07:48:57;;;;;;;27.73;6.85;;;;;;;8.06;100.00;98496.22;5074538;28;20029;-74
2023/03/10 07:51:22;;;;;;;24.15;6.38;;;;;;;8.04;100.00;98495.38;5060413;28;20544;-74
2023/03/10 07:53:48;;;;;;;25.95;6.45;;;;;;;8.02;100.00;98497.16;5072194;28;20116;-77
2023/03/10 07:56:13;;;;;;;25.88;6.03;;;;;;;7.99;100.00;98499.88;5069386;28;20490;-72
2023/03/10 07:58:39;;;;;;;25.42;5.72;;;;;;;7.89;100.00;98501.84;5068936;28;20043;-72
2023/03/10 08:01:06;;;;;;;23.98;5.22;;;;;;;7.89;100.00;98496.56;5076304;28;20029;-71
2023/03/10 08:03:33;;;;;;;23.25;5.32;;;;;;;7.91;100.00;98502.69;5074577;28;20480;-72
2023/03/10 08:05:58;;;;;;;25.00;5.47;;;;;;;7.92;100.00;98504.44;5071100;28;20039;-72
2023/03/10 08:08:25;;;;;;;26.60;5.55;;;;;;;7.96;100.00;98495.53;5070819;28;20024;-78
2023/03/10 08:11:08;;;;;;;25.75;5.32;;;;;;;8.08;100.00;98498.81;5072298;28;20033;-74
2023/03/10 08:13:33;;;;;;;25.15;5.57;;;;;;;8.18;100.00;98503.84;5075214;28;20039;-72
2023/03/10 08:16:00;;;;;;;23.35;4.65;;;;;;;8.19;100.00;98496.78;5070966;28;20867;-72
2023/03/10 08:18:26;;;;;;;23.52;5.28;;;;;;;8.26;100.00;98498.38;5074227;28;20100;-77
2023/03/10 08:20:51;;;;;;;23.77;5.10;;;;;;;8.29;100.00;98506.19;5070288;28;20025;-74
2023/03/10 08:23:16;;;;;;;23.45;5.15;;;;;;;8.30;100.00;98510.56;5077292;28;20029;-74
2023/03/10 08:25:42;;;;;;;24.17;4.80;;;;;;;8.38;100.00;98500.72;5072444;28;20359;-74
2023/03/10 08:28:07;;;;;;;21.25;4.57;;;;;;;8.32;100.00;98502.63;5076600;28;20363;-74
2023/03/10 08:30:33;;;;;;;20.73;4.13;;;;;;;8.24;100.00;98496.69;5069116;28;20036;-73
2023/03/10 08:32:58;;;;;;;20.98;4.68;;;;;;;8.32;100.00;98503.50;5072091;28;20067;-74
2023/03/10 08:35:23;;;;;;;22.95;4.75;;;;;;;8.33;100.00;98506.97;5071490;28;20029;-68
2023/03/10 08:37:51;;;;;;;22.98;5.13;;;;;;;8.30;100.00;98513.22;5071121;28;20085;-68
2023/03/10 08:40:16;;;;;;;21.70;4.35;;;;;;;8.27;100.00;98499.25;5071897;28;20021;-68
2023/03/10 08:42:42;;;;;;;21.35;3.85;;;;;;;8.30;100.00;98512.31;5075700;28;20032;-69
2023/03/10 08:45:07;;;;;;;22.42;4.57;;;;;;;8.32;100.00;98500.00;5065805;28;20541;-69
2023/03/10 08:47:33;;;;;;;20.13;4.00;;;;;;;8.59;100.00;98505.53;5069097;28;20041;-68
2023/03/10 08:49:58;;;;;;;21.85;4.03;;;;;;;8.70;100.00;98500.88;5075075;28;20115;-68
2023/03/10 08:52:23;;;;;;;18.88;3.90;;;;;;;8.81;100.00;98504.09;5074836;28;20035;-70
2023/03/10 08:54:49;;;;;;;19.60;4.00;;;;;;;8.97;100.00;98501.94;5074350;28;20125;-68
2023/03/10 08:57:14;;;;;;;19.63;3.60;;;;;;;9.11;100.00;98512.09;5074411;28;20039;-69
2023/03/10 08:59:39;;;;;;;21.50;3.60;;;;;;;9.07;100.00;98495.50;5066732;28;20044;-68
2023/03/10 09:02:09;;;;;;;20.27;4.00;;;;;;;8.99;100.00;98513.28;5074614;28;20467;-69
2023/03/10 09:04:34;;;;;;;20.20;3.80;;;;;;;8.84;100.00;98492.59;5074455;28;20021;-69
2023/03/10 09:06:59;;;;;;;18.17;3.55;;;;;;;8.78;100.00;98501.53;5074337;28;20521;-68
2023/03/10 09:09:25;;;;;;;19.92;3.60;;;;;;;8.76;100.00;98495.44;5064736;28;20083;-73
2023/03/10 09:11:50;;;;;;;16.55;3.35;;;;;;;8.78;100.00;98490.13;5073634;28;20020;-69
2023/03/10 09:14:16;;;;;;;19.40;3.63;;;;;;;8.88;100.00;98489.88;5072751;28;20089;-69
2023/03/10 09:16:41;;;;;;;20.85;3.60;;;;;;;8.98;100.00;98485.19;5069887;28;20042;-70
2023/03/10 09:19:07;;;;;;;18.67;3.78;;;;;;;9.13;100.00;98483.06;5060409;28;20037;-69
2023/03/10 09:21:33;;;;;;;19.95;3.97;;;;;;;9.22;100.00;98485.47;5069474;28;21357;-69
2023/03/10 09:23:59;;;;;;;20.13;4.00;;;;;;;9.30;100.00;98480.81;5066293;28;20040;-69
2023/03/10 09:26:24;;;;;;;19.08;3.72;;;;;;;9.23;100.00;98484.53;5073627;28;20016;-70
2023/03/10 09:28:50;;;;;;;19.70;3.95;;;;;;;9.15;100.00;98486.53;5069934;28;20029;-70
2023/03/10 09:31:20;;;;;;;20.73;4.07;;;;;;;9.13;100.00;98488.31;5070247;28;20059;-70
2023/03/10 09:33:45;;;;;;;19.02;3.40;;;;;;;9.08;100.00;98497.22;5069375;28;20474;-69
2023/03/10 09:36:11;;;;;;;19.75;3.70;;;;;;;9.02;100.00;98481.56;5075206;28;20035;-70
2023/03/10 09:38:36;;;;;;;18.40;3.40;;;;;;;8.95;100.00;98476.53;5070440;28;20028;-70
2023/03/10 09:41:17;;;;;;;18.23;3.15;;;;;;;8.96;100.00;98492.28;5071184;28;20024;-71
2023/03/10 09:43:49;;;;;;;16.58;3.20;;;;;;;8.96;100.00;98491.44;5069178;28;20382;-69
2023/03/10 09:46:14;;;;;;;19.08;3.53;;;;;;;8.85;100.00;98489.94;5070236;28;20085;-69
2023/03/10 09:48:53;;;;;;;14.98;2.80;;;;;;;8.73;100.00;98504.28;5073280;28;20028;-69
2023/03/10 09:51:24;;;;;;;14.07;2.83;;;;;;;8.57;100.00;98502.94;5067122;28;20098;-69
2023/03/10 09:54:00;;;;;;;14.60;2.80;;;;;;;8.59;100.00;98498.50;5071028;28;20040;-70
2023/03/10 09:56:30;;;;;;;16.70;3.30;;;;;;;8.63;100.00;98502.78;5069841;28;20107;-71
2023/03/10 09:59:06;;;;;;;18.67;3.60;;;;;;;8.76;100.00;98510.38;5071466;28;20035;-71
2023/03/10 10:01:32;;;;;;;17.42;3.55;;;;;;;8.71;100.00;98503.47;5064280;28;20141;-70
2023/03/10 10:04:11;;;;;;;17.77;3.97;;;;;;;8.72;100.00;98497.28;5069242;28;20505;-69
2023/03/10 10:06:41;;;;;;;18.00;3.95;;;;;;;8.69;100.00;98513.19;5065271;28;20031;-68
2023/03/10 10:09:29;;;;;;;20.30;4.40;;;;;;;8.76;100.00;98516.50;5068485;28;20024;-69
2023/03/10 10:11:55;;;;;;;16.95;3.75;;;;;;;8.64;100.00;98517.69;5060496;28;20051;-76
2023/03/10 10:14:21;;;;;;;18.98;4.22;;;;;;;8.55;100.00;98510.88;5071924;28;20024;-79
2023/03/10 10:16:49;;;;;;;20.92;4.45;;;;;;;8.44;100.00;98515.53;5068982;28;20025;-79
2023/03/10 10:19:21;;;;;;;20.15;4.50;;;;;;;8.29;100.00;98521.16;5072819;28;20029;-74
2023/03/10 10:22:01;;;;;;;18.90;4.13;;;;;;;8.22;100.00;98522.19;5064478;28;20033;-74
2023/03/10 10:24:26;;;;;;;21.23;4.60;;;;;;;8.09;100.00;98518.97;5063487;28;20032;-72
2023/03/10 10:26:52;;;;;;;23.77;5.20;;;;;;;8.05;100.00;98519.91;5067018;28;20506;-71
2023/03/10 10:29:21;;;;;;;21.38;5.03;;;;;;;7.98;100.00;98522.69;5070476;28;20463;-73
2023/03/10 10:32:13;;;;;;;22.98;5.70;;;;;;;7.97;100.00;98526.22;5063771;28;20032;-74
2023/03/10 10:34:44;;;;;;;24.08;5.32;;;;;;;8.02;100.00;98526.13;5067869;28;20025;-76
2023/03/10 10:37:18;;;;;;;24.25;4.85;;;;;;;8.03;100.00;98519.97;5064998;28;20055;-72
2023/03/10 10:39:50;;;;;;;23.77;5.18;;;;;;;8.11;100.00;98523.28;5065342;28;20037;-74
2023/03/10 10:42:31;;;;;;;23.52;5.47;;;;;;;8.12;100.00;98518.88;5074295;28;20081;-71
2023/03/10 10:45:01;;;;;;;22.65;5.45;;;;;;;8.12;100.00;98513.63;5065625;28;20025;-72
2023/03/10 10:47:36;;;;;;;25.92;6.43;;;;;;;8.22;100.00;98512.50;5072849;28;20050;-69
2023/03/10 10:50:34;;;;;;;25.55;6.25;;;;;;;8.25;100.00;98507.16;5070870;28;20034;-71
2023/03/10 10:53:18;;;;;;;27.52;7.38;;;;;;;8.30;100.00;98509.69;5061159;28;20487;-69
2023/03/10 10:55:45;;;;;;;26.83;7.55;;;;;;;8.25;100.00;98508.94;5061104;28;20036;-68
2023/03/10 10:58:31;;;;;;;25.40;7.70;;;;;;;8.28;100.00;98504.47;5068224;28;20664;-67
2023/03/10 11:01:15;;;;;;;25.80;7.30;;;;;;;8.30;100.00;98494.78;5065900;28;20025;-68
2023/03/10 11:03:47;;;;;;;24.55;7.38;;;;;;;8.25;100.00;98498.41;5067944;28;20090;-69
2023/03/10 11:06:28;;;;;;;26.00;7.53;;;;;;;8.29;100.00;98495.66;5072725;28;20044;-68
2023/03/10 11:09:07;;;;;;;24.88;6.88;;;;;;;8.36;100.00;98497.25;5072665;28;20086;-68
2023/03/10 11:12:07;;;;;;;27.08;6.88;;;;;;;8.45;100.00;98501.47;5069081;28;20040;-67
2023/03/10 11:15:00;;;;;;;24.95;6.18;;;;;;;8.40;100.00;98503.31;5069269;28;20033;-68
2023/03/10 11:17:42;;;;;;;26.38;6.40;;;;;;;8.42;100.00;98498.00;5068347;28;20035;-68
2023/03/10 11:20:12;;;;;;;21.77;5.18;;;;;;;8.27;100.00;98497.50;5069658;28;20029;-69
2023/03/10 11:22:47;;;;;;;20.70;5.40;;;;;;;8.18;100.00;98493.31;5072395;28;20451;-68
2023/03/10 11:25:33;;;;;;;23.52;5.85;;;;;;;8.19;100.00;98487.13;5072314;28;20129;-68